地図

経路データ

SID SEASON NUMBER BASIN SUBBASIN NAME ISO_TIME NATURE LAT LON WMO_WIND WMO_PRES WMO_AGENCY TRACK_TYPE DIST2LAND LANDFALL IFLAG USA_AGENCY USA_ATCF_ID USA_LAT USA_LON USA_RECORD USA_STATUS USA_WIND USA_PRES USA_SSHS USA_R34_NE USA_R34_SE USA_R34_SW USA_R34_NW USA_R50_NE USA_R50_SE USA_R50_SW USA_R50_NW USA_R64_NE USA_R64_SE USA_R64_SW USA_R64_NW USA_POCI USA_ROCI USA_RMW USA_EYE TOKYO_LAT TOKYO_LON TOKYO_GRADE TOKYO_WIND TOKYO_PRES TOKYO_R50_DIR TOKYO_R50_LONG TOKYO_R50_SHORT TOKYO_R30_DIR TOKYO_R30_LONG TOKYO_R30_SHORT TOKYO_LAND CMA_LAT CMA_LON CMA_CAT CMA_WIND CMA_PRES HKO_LAT HKO_LON HKO_CAT HKO_WIND HKO_PRES NEWDELHI_LAT NEWDELHI_LON NEWDELHI_GRADE NEWDELHI_WIND NEWDELHI_PRES NEWDELHI_CI NEWDELHI_DP NEWDELHI_POCI REUNION_LAT REUNION_LON REUNION_TYPE REUNION_WIND REUNION_PRES REUNION_TNUM REUNION_CI REUNION_RMW REUNION_R34_NE REUNION_R34_SE REUNION_R34_SW REUNION_R34_NW REUNION_R50_NE REUNION_R50_SE REUNION_R50_SW REUNION_R50_NW REUNION_R64_NE REUNION_R64_SE REUNION_R64_SW REUNION_R64_NW BOM_LAT BOM_LON BOM_TYPE BOM_WIND BOM_PRES BOM_TNUM BOM_CI BOM_RMW BOM_R34_NE BOM_R34_SE BOM_R34_SW BOM_R34_NW BOM_R50_NE BOM_R50_SE BOM_R50_SW BOM_R50_NW BOM_R64_NE BOM_R64_SE BOM_R64_SW BOM_R64_NW BOM_ROCI BOM_POCI BOM_EYE BOM_POS_METHOD BOM_PRES_METHOD NADI_LAT NADI_LON NADI_CAT NADI_WIND NADI_PRES WELLINGTON_LAT WELLINGTON_LON WELLINGTON_WIND WELLINGTON_PRES DS824_LAT DS824_LON DS824_STAGE DS824_WIND DS824_PRES TD9636_LAT TD9636_LON TD9636_STAGE TD9636_WIND TD9636_PRES TD9635_LAT TD9635_LON TD9635_WIND TD9635_PRES TD9635_ROCI NEUMANN_LAT NEUMANN_LON NEUMANN_CLASS NEUMANN_WIND NEUMANN_PRES MLC_LAT MLC_LON MLC_CLASS MLC_WIND MLC_PRES USA_GUST BOM_GUST BOM_GUST_PER REUNION_GUST REUNION_GUST_PER USA_SEAHGT USA_SEARAD_NE USA_SEARAD_SE USA_SEARAD_SW USA_SEARAD_NW STORM_SPEED STORM_DIR
1928224N22119 1928 44 WP MM NOT_NAMED 1928-08-10 22:00:00 NR 22.2000 118.500 main 187 140 __________O___ -1 22.2000 118.500 2 13 66
1928224N22119 1928 44 WP MM NOT_NAMED 1928-08-11 00:00:00 NR 22.3770 118.933 main 140 65 __________P___ -1 22.3770 118.933 2 13 66
1928224N22119 1928 44 WP MM NOT_NAMED 1928-08-11 03:00:00 NR 22.6376 119.578 main 65 0 __________P___ -1 22.6376 119.578 2 13 66
1928224N22119 1928 44 WP MM NOT_NAMED 1928-08-11 06:00:00 NR 22.8883 120.207 main 0 0 __________P___ -1 22.8883 120.207 2 12 67
1928224N22119 1928 44 WP MM NOT_NAMED 1928-08-11 09:00:00 NR 23.1249 120.808 main 0 0 __________P___ -1 23.1249 120.808 2 12 67
1928224N22119 1928 44 WP MM NOT_NAMED 1928-08-11 10:00:00 NR 23.2000 121.000 main 0 0 __________O___ -1 23.2000 121.000 2 11 67
1928224N22119 1928 44 WP MM NOT_NAMED 1928-08-11 12:00:00 NR 23.3441 121.370 main 0 0 __________P___ -1 23.3441 121.370 2 11 67
1928224N22119 1928 44 WP MM NOT_NAMED 1928-08-11 15:00:00 NR 23.5482 121.894 main 46 42 __________P___ -1 23.5482 121.894 2 10 67
1928224N22119 1928 44 WP MM NOT_NAMED 1928-08-11 18:00:00 NR 23.7434 122.385 main 91 87 __________P___ -1 23.7434 122.385 2 10 66
1928224N22119 1928 44 WP MM NOT_NAMED 1928-08-11 21:00:00 NR 23.9356 122.850 main 113 115 __________P___ -1 23.9356 122.850 2 9 65
1928224N22119 1928 44 WP MM NOT_NAMED 1928-08-11 22:00:00 NR 24.0000 123.000 main 124 124 __________O___ -1 24.0000 123.000 2 9 65
1928224N22119 1928 44 WP MM NOT_NAMED 1928-08-12 00:00:00 NR 24.1329 123.303 main 148 148 __________P___ -1 24.1329 123.303 2 9 64
1928224N22119 1928 44 WP MM NOT_NAMED 1928-08-12 03:00:00 NR 24.3326 123.739 main 183 192 __________P___ -1 24.3326 123.739 2 9 63
1928224N22119 1928 44 WP MM NOT_NAMED 1928-08-12 06:00:00 NR 24.5327 124.158 main 228 226 __________P___ -1 24.5327 124.158 2 9 62
1928224N22119 1928 44 WP MM NOT_NAMED 1928-08-12 09:00:00 NR 24.7331 124.566 main 264 263 __________P___ -1 24.7331 124.566 2 8 62
1928224N22119 1928 44 WP MM NOT_NAMED 1928-08-12 10:00:00 NR 24.8000 124.700 main 273 273 __________O___ -1 24.8000 124.700 2 9 61
1928224N22119 1928 44 WP MM NOT_NAMED 1928-08-12 12:00:00 NR 24.9384 124.980 main 302 302 __________P___ -1 24.9384 124.980 2 9 61
1928224N22119 1928 44 WP MM NOT_NAMED 1928-08-12 15:00:00 NR 25.1463 125.395 main 342 342 __________P___ -1 25.1463 125.395 2 8 61
1928224N22119 1928 44 WP MM NOT_NAMED 1928-08-12 18:00:00 NR 25.3490 125.796 main 383 384 __________P___ -1 25.3490 125.796 2 8 61
1928224N22119 1928 44 WP MM NOT_NAMED 1928-08-12 21:00:00 NR 25.5400 126.178 main 425 427 __________P___ -1 25.5400 126.178 2 8 61
1928224N22119 1928 44 WP MM NOT_NAMED 1928-08-12 22:00:00 NR 25.6000 126.300 main 437 437 __________O___ -1 25.6000 126.300 2 7 61
1928224N22119 1928 44 WP MM NOT_NAMED 1928-08-13 00:00:00 NR 25.7162 126.526 main 458 458 __________P___ -1 25.7162 126.526 2 7 61
1928224N22119 1928 44 WP MM NOT_NAMED 1928-08-13 03:00:00 NR 25.8783 126.846 main 491 501 __________P___ -1 25.8783 126.846 2 6 61
1928224N22119 1928 44 WP MM NOT_NAMED 1928-08-13 06:00:00 NR 26.0258 127.160 main 533 533 __________P___ -1 26.0258 127.160 2 6 64
1928224N22119 1928 44 WP MM NOT_NAMED 1928-08-13 09:00:00 NR 26.1589 127.485 main 567 567 __________P___ -1 26.1589 127.485 2 6 66
1928224N22119 1928 44 WP MM NOT_NAMED 1928-08-13 10:00:00 NR 26.2000 127.600 main 576 576 __________O___ -1 26.2000 127.600 2 7 73
1928224N22119 1928 44 WP MM NOT_NAMED 1928-08-13 12:00:00 NR 26.2654 127.876 main 591 564 __________P___ -1 26.2654 127.876 2 8 77
1928224N22119 1928 44 WP MM NOT_NAMED 1928-08-13 15:00:00 NR 26.3504 128.309 main 564 549 __________P___ -1 26.3504 128.309 2 8 77
1928224N22119 1928 44 WP MM NOT_NAMED 1928-08-13 18:00:00 NR 26.4388 128.730 main 549 515 __________P___ -1 26.4388 128.730 2 7 74
1928224N22119 1928 44 WP MM NOT_NAMED 1928-08-13 21:00:00 NR 26.5526 129.097 main 515 512 __________P___ -1 26.5526 129.097 2 7 69
1928224N22119 1928 44 WP MM NOT_NAMED 1928-08-13 22:00:00 NR 26.6000 129.200 main 512 496 __________O___ -1 26.6000 129.200 2 6 54
1928224N22119 1928 44 WP MM NOT_NAMED 1928-08-14 00:00:00 NR 26.7235 129.357 main 496 472 __________P___ -1 26.7235 129.357 2 5 41
1928224N22119 1928 44 WP MM NOT_NAMED 1928-08-14 03:00:00 NR 26.9409 129.530 main 472 435 __________P___ -1 26.9409 129.530 2 5 30
1928224N22119 1928 44 WP MM NOT_NAMED 1928-08-14 06:00:00 NR 27.1801 129.655 main 435 411 __________P___ -1 27.1801 129.655 2 5 23
1928224N22119 1928 44 WP MM NOT_NAMED 1928-08-14 09:00:00 NR 27.4220 129.762 main 411 400 __________P___ -1 27.4220 129.762 2 5 22
1928224N22119 1928 44 WP MM NOT_NAMED 1928-08-14 10:00:00 NR 27.5000 129.800 main 400 376 __________O___ -1 27.5000 129.800 2 5 29
1928224N22119 1928 44 WP MM NOT_NAMED 1928-08-14 12:00:00 NR 27.6574 129.913 main 376 350 __________P___ -1 27.6574 129.913 2 6 33
1928224N22119 1928 44 WP MM NOT_NAMED 1928-08-14 15:00:00 NR 27.8877 130.083 main 350 327 __________P___ -1 27.8877 130.083 2 5 33
1928224N22119 1928 44 WP MM NOT_NAMED 1928-08-14 18:00:00 NR 28.0942 130.239 main 327 302 __________P___ -1 28.0942 130.239 2 4 34
1928224N22119 1928 44 WP MM NOT_NAMED 1928-08-14 21:00:00 NR 28.2581 130.367 main 302 302 __________P___ -1 28.2581 130.367 2 4 35
1928224N22119 1928 44 WP MM NOT_NAMED 1928-08-14 22:00:00 NR 28.3000 130.400 main 302 291 __________O___ -1 28.3000 130.400 2 2 36
1928224N22119 1928 44 WP MM NOT_NAMED 1928-08-15 00:00:00 NR 28.3539 130.445 main 291 290 __________P___ -1 28.3539 130.445 2 1 36
1928224N22119 1928 44 WP MM NOT_NAMED 1928-08-15 03:00:00 NR 28.3907 130.482 main 290 290 __________P___ -1 28.3907 130.482 2 1 40
1928224N22119 1928 44 WP MM NOT_NAMED 1928-08-15 06:00:00 NR 28.3967 130.494 main 290 290 __________P___ -1 28.3967 130.494 2 0 0
1928224N22119 1928 44 WP MM NOT_NAMED 1928-08-15 09:00:00 NR 28.3969 130.498 main 290 290 __________P___ -1 28.3969 130.498 2 0 0
1928224N22119 1928 44 WP MM NOT_NAMED 1928-08-15 10:00:00 NR 28.4000 130.500 main 290 290 __________O___ -1 28.4000 130.500 2 1 33
1928224N22119 1928 44 WP MM NOT_NAMED 1928-08-15 12:00:00 NR 28.4302 130.517 main 290 279 __________P___ -1 28.4302 130.517 2 1 22
1928224N22119 1928 44 WP MM NOT_NAMED 1928-08-15 15:00:00 NR 28.4820 130.542 main 279 279 __________P___ -1 28.4820 130.542 2 1 19
1928224N22119 1928 44 WP MM NOT_NAMED 1928-08-15 18:00:00 NR 28.5358 130.567 main 279 268 __________P___ -1 28.5358 130.567 2 1 22
1928224N22119 1928 44 WP MM NOT_NAMED 1928-08-15 21:00:00 NR 28.5855 130.592 main 268 268 __________P___ -1 28.5855 130.592 2 1 36
1928224N22119 1928 44 WP MM NOT_NAMED 1928-08-15 22:00:00 NR 28.6000 130.600 main 268 268 __________O___ -1 28.6000 130.600 2 1 30
1928224N22119 1928 44 WP MM NOT_NAMED 1928-08-16 00:00:00 NR 28.6198 130.617 main 268 268 __________P___ -1 28.6198 130.617 2 1 40
1928224N22119 1928 44 WP MM NOT_NAMED 1928-08-16 03:00:00 NR 28.6430 130.642 main 268 256 __________P___ -1 28.6430 130.642 2 1 37
1928224N22119 1928 44 WP MM NOT_NAMED 1928-08-16 06:00:00 NR 28.6642 130.667 main 256 256 __________P___ -1 28.6642 130.667 2 1 34
1928224N22119 1928 44 WP MM NOT_NAMED 1928-08-16 09:00:00 NR 28.6895 130.692 main 256 256 __________P___ -1 28.6895 130.692 2 1 50
1928224N22119 1928 44 WP MM NOT_NAMED 1928-08-16 10:00:00 NR 28.7000 130.700 main 256 256 __________O___ -1 28.7000 130.700 2 1 0
1928224N22119 1928 44 WP MM NOT_NAMED 1928-08-16 12:00:00 NR 28.7302 130.717 main 256 245 __________P___ -1 28.7302 130.717 2 1 22
1928224N22119 1928 44 WP MM NOT_NAMED 1928-08-16 15:00:00 NR 28.7820 130.742 main 245 245 __________P___ -1 28.7820 130.742 2 1 19
1928224N22119 1928 44 WP MM NOT_NAMED 1928-08-16 18:00:00 NR 28.8358 130.767 main 245 234 __________P___ -1 28.8358 130.767 2 1 22
1928224N22119 1928 44 WP MM NOT_NAMED 1928-08-16 21:00:00 NR 28.8855 130.792 main 234 234 __________P___ -1 28.8855 130.792 2 1 36
1928224N22119 1928 44 WP MM NOT_NAMED 1928-08-16 22:00:00 NR 28.9000 130.800 main 234 234 __________O___ -1 28.9000 130.800 2 1 30
1928224N22119 1928 44 WP MM NOT_NAMED 1928-08-17 00:00:00 NR 28.9198 130.817 main 234 234 __________P___ -1 28.9198 130.817 2 1 40
1928224N22119 1928 44 WP MM NOT_NAMED 1928-08-17 03:00:00 NR 28.9430 130.842 main 234 224 __________P___ -1 28.9430 130.842 2 1 37
1928224N22119 1928 44 WP MM NOT_NAMED 1928-08-17 06:00:00 NR 28.9642 130.867 main 224 224 __________P___ -1 28.9642 130.867 2 1 34
1928224N22119 1928 44 WP MM NOT_NAMED 1928-08-17 09:00:00 NR 28.9895 130.892 main 224 224 __________P___ -1 28.9895 130.892 2 1 50
1928224N22119 1928 44 WP MM NOT_NAMED 1928-08-17 10:00:00 NR 29.0000 130.900 main 224 224 __________O___ -1 29.0000 130.900 2 1 27
1928224N22119 1928 44 WP MM NOT_NAMED 1928-08-17 12:00:00 NR 29.0248 130.917 main 224 212 __________P___ -1 29.0248 130.917 2 1 27
1928224N22119 1928 44 WP MM NOT_NAMED 1928-08-17 15:00:00 NR 29.0705 130.942 main 212 212 __________P___ -1 29.0705 130.942 2 1 20
1928224N22119 1928 44 WP MM NOT_NAMED 1928-08-17 18:00:00 NR 29.1235 130.967 main 213 202 __________P___ -1 29.1235 130.967 2 1 22
1928224N22119 1928 44 WP MM NOT_NAMED 1928-08-17 21:00:00 NR 29.1806 130.992 main 202 202 __________P___ -1 29.1806 130.992 2 1 30
1928224N22119 1928 44 WP MM NOT_NAMED 1928-08-17 22:00:00 NR 29.2000 131.000 main 202 __________O___ -1 29.2000 131.000 2 1 0

デジタル台風データ・検索

IBTrACS Databaseについて

本データベースは、米国NOAAが公開する1842年以降の世界の熱帯低気圧のベストトラックデータアーカイブInternational Best Track Archive for Climate Stewardship (IBTrACS)を、ウェブで閲覧しやすい形式に変換したものです。

最終更新日:2021-12-01